Noshiro Maru — JD4183 — position and weather

sailwx.info

Track history (hours):
 
Tides and Currents Weather Stations Pressure Air Temp Water Temp Dewpoint Dewpoint Depression Visibility Wind Speed Wind Dir Waves Ship Positions

Noshiro Maru

Last reported at 2018-Jul-18 07:01 UTC. Time now 2018-Jul-18 07:04 UTC.
Position N 35°17' E 139°41'.

Length 38 m; draft 3 m.

Type: Tug. MMSI: 431009622.

Date/timePositionNaut miles runAvg speedWind from/ knotsBaromVisibWave heightAir tempDewpointWater temp
2018-Jul-18 07:01N 35°17' E 139°41'5 9.0
2018-Jul-18 06:30N 35°14' E 139°45'2 3.8
2018-Jul-18 05:59N 35°16' E 139°46'612.3
2018-Jul-18 05:31N 35°21' E 139°42'3 7.0
2018-Jul-18 05:00N 35°24' E 139°40'1 1.0
2018-Jul-18 04:31N 35°24' E 139°39'0 0.9
2018-Jul-18 04:01N 35°23' E 139°39'1 1.2
2018-Jul-18 03:31N 35°23' E 139°40'0 0.3
2018-Jul-18 03:01N 35°23' E 139°40'612.2
2018-Jul-18 02:31N 35°17' E 139°44'611.1
2018-Jul-18 02:00N 35°12' E 139°46'611.8
2018-Jul-18 01:30N 35°18' E 139°44'612.7
2018-Jul-18 01:00N 35°24' E 139°43'4 7.7
2018-Jul-18 00:30N 35°28' E 139°44'0 0.1
2018-Jul-18 00:00N 35°28' E 139°44'4 8.8
2018-Jul-17 23:30N 35°23' E 139°44'611.3
2018-Jul-17 23:00N 35°18' E 139°42'1 2.7
2018-Jul-17 22:30N 35°17' E 139°41'0 0.0
2018-Jul-17 22:00N 35°17' E 139°41'0 0.0
2018-Jul-17 21:30N 35°17' E 139°41'0 0.0
2018-Jul-17 21:00N 35°17' E 139°41'0 0.0
2018-Jul-17 20:30N 35°17' E 139°41'0 0.0
2018-Jul-17 20:00N 35°17' E 139°41'0 0.0
2018-Jul-17 19:30N 35°17' E 139°41'0 0.0
2018-Jul-17 19:00N 35°17' E 139°41'0 0.0
2018-Jul-17 18:30N 35°17' E 139°41'0 0.0
2018-Jul-17 18:00N 35°17' E 139°41'0 0.0
2018-Jul-17 17:30N 35°17' E 139°41'0 0.0
2018-Jul-17 17:00N 35°17' E 139°41'0 0.0
2018-Jul-17 16:30N 35°17' E 139°41'0 0.0
2018-Jul-17 16:00N 35°17' E 139°41'0 0.0
2018-Jul-17 15:30N 35°17' E 139°41'0 0.0
2018-Jul-17 15:00N 35°17' E 139°41'0 0.0
2018-Jul-17 14:30N 35°17' E 139°41'0 0.0
2018-Jul-17 14:00N 35°17' E 139°41'0 0.0
2018-Jul-17 13:30N 35°17' E 139°41'0 0.0
2018-Jul-17 13:00N 35°17' E 139°41'0 0.0
2018-Jul-17 12:30N 35°17' E 139°41'0 0.0
2018-Jul-17 12:00N 35°17' E 139°41'0 0.0
2018-Jul-17 11:30N 35°17' E 139°41'0 0.0
2018-Jul-17 11:00N 35°17' E 139°41'0 0.0
2018-Jul-17 10:30N 35°17' E 139°41'0 0.0
2018-Jul-17 10:00N 35°17' E 139°41'0 0.0
2018-Jul-17 09:30N 35°17' E 139°41'0 0.0
2018-Jul-17 09:00N 35°17' E 139°41'0 0.0
2018-Jul-17 08:30N 35°17' E 139°41'0 0.0
2018-Jul-17 08:00N 35°17' E 139°41'0 0.0
2018-Jul-17 07:30N 35°17' E 139°41'0 0.0
2018-Jul-17 07:00N 35°17' E 139°41'0 0.0
2018-Jul-17 06:30N 35°17' E 139°41'0 0.0
2018-Jul-17 06:00N 35°17' E 139°41'0 0.0
2018-Jul-17 05:30N 35°17' E 139°41'0 0.0
2018-Jul-17 05:00N 35°17' E 139°41'0 0.0
2018-Jul-17 04:30N 35°17' E 139°41'0 0.0
2018-Jul-17 04:00N 35°17' E 139°41'0 0.0
2018-Jul-17 03:30N 35°17' E 139°41'0 0.0
2018-Jul-17 03:00N 35°17' E 139°41'0 0.0
2018-Jul-17 02:30N 35°17' E 139°41'0 0.0
2018-Jul-17 02:00N 35°17' E 139°41'3 6.4
2018-Jul-17 01:30N 35°20' E 139°42'1 1.8
2018-Jul-17 01:01N 35°20' E 139°43'611.0
2018-Jul-17 00:30N 35°16' E 139°47'3 2.6
2018-Jul-16 23:31N 35°17' E 139°44'3 5.2
2018-Jul-16 23:00N 35°17' E 139°41'0 0.6
2018-Jul-16 22:30N 35°17' E 139°41'3 6.0
2018-Jul-16 22:00N 35°20' E 139°41'1 1.1
2018-Jul-16 21:30N 35°21' E 139°40'3 6.8
2018-Jul-16 21:00N 35°17' E 139°41'0 0.3
2018-Jul-16 20:30N 35°17' E 139°41'0 0.0
2018-Jul-16 20:00N 35°17' E 139°41'0 0.0
2018-Jul-16 19:30N 35°17' E 139°41'0 0.0
2018-Jul-16 19:00N 35°17' E 139°41'0 0.0
2018-Jul-16 18:30N 35°17' E 139°41'0 0.0
2018-Jul-16 18:00N 35°17' E 139°41'0 0.0
2018-Jul-16 17:30N 35°17' E 139°41'0 0.0
2018-Jul-16 17:00N 35°17' E 139°41'0 0.0
2018-Jul-16 16:30N 35°17' E 139°41'0 0.0
2018-Jul-16 16:00N 35°17' E 139°41'0 0.0
2018-Jul-16 15:30N 35°17' E 139°41'0 0.0
2018-Jul-16 15:00N 35°17' E 139°41'0 0.0
2018-Jul-16 14:30N 35°17' E 139°41'0 0.0
2018-Jul-16 14:00N 35°17' E 139°41'0 0.0
2018-Jul-16 13:30N 35°17' E 139°41'0 0.0
2018-Jul-16 12:59N 35°17' E 139°41'0 0.0
2018-Jul-16 12:30N 35°17' E 139°41'0 0.0
2018-Jul-16 12:00N 35°17' E 139°41'0 0.0
2018-Jul-16 11:30N 35°17' E 139°41'0 0.0
2018-Jul-16 11:00N 35°17' E 139°41'0 0.0
2018-Jul-16 10:31N 35°17' E 139°41'0 0.0
2018-Jul-16 10:01N 35°17' E 139°41'0 0.0
2018-Jul-16 09:30N 35°17' E 139°41'0 0.0
2018-Jul-16 09:00N 35°17' E 139°41'0 0.0
2018-Jul-16 08:30N 35°17' E 139°41'1 2.2
2018-Jul-16 08:00N 35°18' E 139°42'612.5
2018-Jul-16 07:30N 35°12' E 139°46'510.6
2018-Jul-16 07:00N 35°18' E 139°44'612.4
2018-Jul-16 06:30N 35°24' E 139°43'713.4
2018-Jul-16 06:00N 35°28' E 139°49'8 6.9
2018-Jul-16 04:51N 35°33' E 139°56'1 3.4
2018-Jul-16 04:28N 35°35' E 139°57'0 0.0
2018-Jul-16 03:59N 35°35' E 139°57'0 0.0
2018-Jul-16 03:30N 35°35' E 139°57'0 0.0
2018-Jul-16 03:00N 35°35' E 139°57'0 0.0
2018-Jul-16 02:30N 35°35' E 139°57'0 0.0
2018-Jul-16 01:58N 35°35' E 139°57'0 0.0
2018-Jul-16 01:29N 35°35' E 139°57'0 0.0
2018-Jul-16 01:00N 35°35' E 139°57'12 6.5
2018-Jul-15 23:08N 35°25' E 139°47'213.0
2018-Jul-15 23:00N 35°24' E 139°46'612.0
2018-Jul-15 22:31N 35°18' E 139°45'612.1
2018-Jul-15 22:00N 35°12' E 139°47'1 1.8
2018-Jul-15 21:30N 35°12' E 139°46'611.3
2018-Jul-15 21:01N 35°17' E 139°43'2 3.8
2018-Jul-15 20:30N 35°17' E 139°41'0 0.0
2018-Jul-15 20:01N 35°17' E 139°41'0 0.0
2018-Jul-15 19:31N 35°17' E 139°41'0 0.0
2018-Jul-15 19:00N 35°17' E 139°41'0 0.0
2018-Jul-15 18:31N 35°17' E 139°41'0 0.1
2018-Jul-15 18:00N 35°17' E 139°41'0 0.1
2018-Jul-15 17:30N 35°17' E 139°41'0 0.0
2018-Jul-15 17:00N 35°17' E 139°41'0 0.0
2018-Jul-15 16:30N 35°17' E 139°41'0 0.0
2018-Jul-15 16:01N 35°17' E 139°41'0 0.0
2018-Jul-15 15:31N 35°17' E 139°41'0 0.0
2018-Jul-15 15:00N 35°17' E 139°41'0 0.0
2018-Jul-15 14:31N 35°17' E 139°41'0 0.0
2018-Jul-15 14:01N 35°17' E 139°41'0 0.0
2018-Jul-15 13:30N 35°17' E 139°41'0 0.0
2018-Jul-15 13:01N 35°17' E 139°41'0 0.0
2018-Jul-15 12:30N 35°17' E 139°41'0 0.0
2018-Jul-15 12:00N 35°17' E 139°41'0 0.0
2018-Jul-15 11:31N 35°17' E 139°41'0 0.1
2018-Jul-15 11:01N 35°17' E 139°41'0 0.1
2018-Jul-15 10:30N 35°17' E 139°41'0 0.0
2018-Jul-15 10:01N 35°17' E 139°41'0 0.0
2018-Jul-15 09:30N 35°17' E 139°41'0 0.0
2018-Jul-15 09:00N 35°17' E 139°41'0 0.1
2018-Jul-15 08:30N 35°17' E 139°41'0 0.1
2018-Jul-15 08:01N 35°17' E 139°41'0 0.0
2018-Jul-15 07:30N 35°17' E 139°41'0 0.0
2018-Jul-15 07:01N 35°17' E 139°41'1 1.1
2018-Jul-15 06:30N 35°17' E 139°41'510.2
2018-Jul-15 06:00N 35°14' E 139°46'2 3.3
2018-Jul-15 05:30N 35°15' E 139°46'510.8
2018-Jul-15 05:00N 35°20' E 139°43'510.2
2018-Jul-15 04:30N 35°25' E 139°43'4 8.0
2018-Jul-15 04:00N 35°23' E 139°48'2 4.9
2018-Jul-15 03:30N 35°21' E 139°49'0 0.1
2018-Jul-15 03:00N 35°21' E 139°49'2 4.1
2018-Jul-15 02:30N 35°23' E 139°47'3 5.3
2018-Jul-15 02:00N 35°23' E 139°44'0 0.0
2018-Jul-15 01:30N 35°23' E 139°44'0 0.0
2018-Jul-15 01:00N 35°23' E 139°44'0 0.0
2018-Jul-15 00:30N 35°23' E 139°44'0 0.0
2018-Jul-15 00:00N 35°23' E 139°44'0 0.1
2018-Jul-14 23:30N 35°23' E 139°44'0 0.0
2018-Jul-14 23:00N 35°23' E 139°44'0 0.0
2018-Jul-14 22:31N 35°23' E 139°44'0 0.0
2018-Jul-14 22:00N 35°23' E 139°44'0 0.1
2018-Jul-14 21:30N 35°23' E 139°44'4 7.5
2018-Jul-14 21:00N 35°19' E 139°44'612.8
2018-Jul-14 20:31N 35°13' E 139°47'3 6.5
2018-Jul-14 20:00N 35°10' E 139°46'5 9.9
2018-Jul-14 19:30N 35°15' E 139°45'5 9.4
2018-Jul-14 19:00N 35°17' E 139°41'0 0.4
2018-Jul-14 18:30N 35°17' E 139°41'0 0.0
2018-Jul-14 18:00N 35°17' E 139°41'0 0.0
2018-Jul-14 17:30N 35°17' E 139°41'0 0.1
2018-Jul-14 17:00N 35°17' E 139°41'0 0.1
2018-Jul-14 16:30N 35°17' E 139°41'0 0.1
2018-Jul-14 16:00N 35°17' E 139°41'0 0.1
2018-Jul-14 15:30N 35°17' E 139°41'0 0.0
2018-Jul-14 15:00N 35°17' E 139°41'0 0.0
2018-Jul-14 14:30N 35°17' E 139°41'0 0.0
2018-Jul-14 13:30N 35°17' E 139°41'0 0.0
2018-Jul-14 13:00N 35°17' E 139°41'0 0.0
2018-Jul-14 12:30N 35°17' E 139°41'0 0.0
2018-Jul-14 12:00N 35°17' E 139°41'0 0.0
2018-Jul-14 11:30N 35°17' E 139°41'0 0.0
2018-Jul-14 11:00N 35°17' E 139°41'0 0.0
2018-Jul-14 10:30N 35°17' E 139°41'0 0.0
2018-Jul-14 10:00N 35°17' E 139°41'0 0.1
2018-Jul-14 09:30N 35°17' E 139°41'0 0.1
2018-Jul-14 09:00N 35°17' E 139°41'0 0.0
2018-Jul-14 08:30N 35°17' E 139°41'0 0.0
2018-Jul-14 08:00N 35°17' E 139°41'0 0.0
2018-Jul-14 07:30N 35°17' E 139°41'0 0.0
2018-Jul-14 07:00N 35°17' E 139°41'0 0.0
2018-Jul-14 06:30N 35°17' E 139°41'0 0.0
2018-Jul-14 06:00N 35°17' E 139°41'0 0.0
2018-Jul-14 05:30N 35°17' E 139°41'0 0.0
2018-Jul-14 05:00N 35°17' E 139°41'0 0.0
2018-Jul-14 04:30N 35°17' E 139°41'0 0.0
2018-Jul-14 04:00N 35°17' E 139°41'0 0.0
2018-Jul-14 03:30N 35°17' E 139°41'0 0.0
2018-Jul-14 03:00N 35°17' E 139°41'0 0.0
2018-Jul-14 02:30N 35°17' E 139°41'0 0.0
2018-Jul-14 02:00N 35°17' E 139°41'0 0.0
2018-Jul-14 01:30N 35°17' E 139°41'5 9.4
2018-Jul-14 01:00N 35°22' E 139°42'612.1
2018-Jul-14 00:30N 35°28' E 139°43'0 0.5
2018-Jul-14 00:00N 35°28' E 139°43'0 0.2
2018-Jul-13 23:30N 35°28' E 139°43'0 0.1
2018-Jul-13 23:00N 35°28' E 139°43'0 0.0
2018-Jul-13 22:31N 35°28' E 139°43'0 0.2
2018-Jul-13 22:00N 35°28' E 139°43'0 0.1
2018-Jul-13 21:30N 35°28' E 139°43'0 0.1
2018-Jul-13 21:00N 35°28' E 139°43'0 0.7
2018-Jul-13 20:31N 35°28' E 139°43'0 0.8
2018-Jul-13 20:00N 35°28' E 139°43'0 0.0
2018-Jul-13 19:30N 35°28' E 139°43'0 0.2
2018-Jul-13 19:00N 35°28' E 139°43'0 0.1
2018-Jul-13 18:30N 35°28' E 139°43'0 0.2
2018-Jul-13 18:00N 35°28' E 139°43'0 0.2
2018-Jul-13 17:30N 35°28' E 139°43'0 0.1
2018-Jul-13 17:00N 35°28' E 139°43'0 0.6
2018-Jul-13 16:30N 35°28' E 139°43'0 0.6
2018-Jul-13 16:01N 35°28' E 139°43'0 0.1
2018-Jul-13 15:30N 35°28' E 139°43'0 0.1
2018-Jul-13 15:00N 35°28' E 139°43'0 0.1
2018-Jul-13 14:01N 35°28' E 139°43'0 0.3
2018-Jul-13 13:30N 35°28' E 139°43'0 0.2
2018-Jul-13 12:59N 35°28' E 139°43'0 0.3
2018-Jul-13 12:30N 35°28' E 139°43'0 0.2
2018-Jul-13 12:00N 35°28' E 139°43'0 0.2
2018-Jul-13 11:30N 35°28' E 139°43'0 0.5
2018-Jul-13 11:00N 35°28' E 139°43'0 0.4
2018-Jul-13 10:30N 35°28' E 139°43'0 0.1
2018-Jul-13 10:01N 35°28' E 139°43'0 0.3
2018-Jul-13 09:30N 35°28' E 139°43'0 0.4
2018-Jul-13 09:00N 35°28' E 139°43'0 0.2
2018-Jul-13 08:30N 35°28' E 139°43'0 0.6
2018-Jul-13 08:00N 35°28' E 139°43'0 0.8
2018-Jul-13 07:30N 35°28' E 139°43'0 0.8
2018-Jul-13 07:01N 35°28' E 139°43'0 0.5
2018-Jul-13 06:30N 35°28' E 139°43'0 0.6
2018-Jul-13 06:01N 35°28' E 139°43'0 0.1
2018-Jul-13 05:30N 35°28' E 139°43'0 0.1
2018-Jul-13 05:00N 35°28' E 139°43'0 0.0
2018-Jul-13 04:30N 35°28' E 139°43'3 5.3
2018-Jul-13 04:00N 35°26' E 139°45'4 8.8
2018-Jul-13 03:31N 35°21' E 139°45'510.7
2018-Jul-13 03:00N 35°16' E 139°46'510.6
2018-Jul-13 02:30N 35°11' E 139°47'1 2.4
2018-Jul-13 02:00N 35°12' E 139°46'612.3
2018-Jul-13 01:30N 35°18' E 139°43'2 4.5
2018-Jul-13 01:00N 35°17' E 139°41'0 0.0
2018-Jul-13 00:30N 35°17' E 139°41'0 0.0
2018-Jul-13 00:00N 35°17' E 139°41'0 0.0
2018-Jul-12 23:30N 35°17' E 139°41'0 0.0
2018-Jul-12 23:00N 35°17' E 139°41'0 0.0
2018-Jul-12 22:30N 35°17' E 139°41'0 0.0
2018-Jul-12 21:59N 35°17' E 139°41'0 0.0
2018-Jul-12 21:29N 35°17' E 139°41'0 0.0
2018-Jul-12 21:00N 35°17' E 139°41'0 0.0
2018-Jul-12 20:30N 35°17' E 139°41'0 0.0
2018-Jul-12 19:59N 35°17' E 139°41'0 0.0
2018-Jul-12 19:30N 35°17' E 139°41'0 0.0
2018-Jul-12 19:00N 35°17' E 139°41'0 0.0
2018-Jul-12 18:30N 35°17' E 139°41'0 0.0
2018-Jul-12 18:00N 35°17' E 139°41'0 0.0
2018-Jul-12 17:30N 35°17' E 139°41'0 0.0
2018-Jul-12 16:59N 35°17' E 139°41'0 0.0
2018-Jul-12 16:30N 35°17' E 139°41'0 0.0
2018-Jul-12 15:57N 35°17' E 139°41'0 0.0
2018-Jul-12 15:29N 35°17' E 139°41'0 0.0
2018-Jul-12 15:00N 35°17' E 139°41'0 0.0
2018-Jul-12 14:30N 35°17' E 139°41'0 0.0
2018-Jul-12 14:00N 35°17' E 139°41'0 0.0
2018-Jul-12 13:30N 35°17' E 139°41'0 0.0
2018-Jul-12 13:00N 35°17' E 139°41'0 0.0
2018-Jul-12 12:29N 35°17' E 139°41'0 0.0
2018-Jul-12 12:00N 35°17' E 139°41'0 0.0
2018-Jul-12 11:29N 35°17' E 139°41'0 0.0
2018-Jul-12 11:00N 35°17' E 139°41'0 0.0
2018-Jul-12 10:28N 35°17' E 139°41'0 0.0
2018-Jul-12 09:57N 35°17' E 139°41'0 0.0
2018-Jul-12 09:30N 35°17' E 139°41'0 0.0
2018-Jul-12 09:00N 35°17' E 139°41'0 0.0
2018-Jul-12 08:28N 35°17' E 139°41'0 0.0
2018-Jul-12 07:59N 35°17' E 139°41'0 0.0
2018-Jul-12 07:30N 35°17' E 139°41'0 0.0
2018-Jul-12 06:59N 35°17' E 139°41'0 0.0
2018-Jul-12 06:28N 35°17' E 139°41'0 0.0
2018-Jul-12 06:00N 35°17' E 139°41'0 0.0
2018-Jul-12 05:30N 35°17' E 139°41'0 0.0
2018-Jul-12 04:59N 35°17' E 139°41'0 0.0
2018-Jul-12 04:30N 35°17' E 139°41'0 0.0
2018-Jul-12 04:00N 35°17' E 139°41'0 0.0
2018-Jul-12 03:30N 35°17' E 139°41'0 0.0
2018-Jul-12 03:00N 35°17' E 139°41'0 0.0
2018-Jul-12 02:30N 35°17' E 139°41'0 0.0
2018-Jul-12 02:00N 35°17' E 139°41'0 0.0
2018-Jul-12 01:30N 35°17' E 139°41'0 0.0
2018-Jul-12 01:00N 35°17' E 139°41'0 0.0
2018-Jul-12 00:30N 35°17' E 139°41'0 0.0
2018-Jul-12 00:00N 35°17' E 139°41'3 6.7
2018-Jul-11 23:30N 35°20' E 139°42'611.7
2018-Jul-11 23:01N 35°25' E 139°46'612.9
2018-Jul-11 22:31N 35°19' E 139°44'612.1
2018-Jul-11 22:00N 35°13' E 139°47'3 6.1
2018-Jul-11 21:31N 35°10' E 139°46'4 8.5
2018-Jul-11 21:00N 35°13' E 139°43'0 0.0
2018-Jul-11 20:30N 35°13' E 139°43'0 0.0
2018-Jul-11 20:00N 35°13' E 139°43'0 0.0
2018-Jul-11 19:29N 35°13' E 139°43'0 0.0
2018-Jul-11 19:00N 35°13' E 139°43'0 0.0
2018-Jul-11 18:30N 35°13' E 139°43'0 0.0
2018-Jul-11 18:00N 35°13' E 139°43'0 0.0
2018-Jul-11 17:30N 35°13' E 139°43'0 0.0
2018-Jul-11 16:59N 35°13' E 139°43'0 0.0
2018-Jul-11 16:30N 35°13' E 139°43'0 1.0
2018-Jul-11 16:01N 35°13' E 139°44'3 5.3
2018-Jul-11 15:30N 35°15' E 139°46'612.9
2018-Jul-11 15:00N 35°20' E 139°42'612.2
2018-Jul-11 14:31N 35°26' E 139°42'1 2.4
2018-Jul-11 14:00N 35°27' E 139°41'0 0.1
2018-Jul-11 13:30N 35°27' E 139°41'1 2.1
2018-Jul-11 13:01N 35°27' E 139°42'0 0.0
2018-Jul-11 12:30N 35°27' E 139°42'0 0.1
2018-Jul-11 12:01N 35°27' E 139°42'0 0.0
2018-Jul-11 11:30N 35°27' E 139°42'0 0.0
2018-Jul-11 11:00N 35°27' E 139°42'0 0.0
2018-Jul-11 10:30N 35°27' E 139°42'0 0.1
2018-Jul-11 10:00N 35°27' E 139°42'0 0.1
2018-Jul-11 09:29N 35°27' E 139°42'0 0.0
2018-Jul-11 09:00N 35°27' E 139°42'0 0.0
2018-Jul-11 08:30N 35°27' E 139°42'0 0.0
2018-Jul-11 08:00N 35°27' E 139°42'0 0.0
2018-Jul-11 07:31N 35°27' E 139°42'0 0.1
2018-Jul-11 07:01N 35°27' E 139°42'0 0.0
2018-Jul-11 06:30N 35°27' E 139°42'4 8.0
2018-Jul-11 06:00N 35°25' E 139°46'5 9.5
2018-Jul-11 05:30N 35°20' E 139°44'510.9
2018-Jul-11 05:00N 35°15' E 139°47'510.3
2018-Jul-11 04:30N 35°10' E 139°47'3 5.8
2018-Jul-11 04:00N 35°13' E 139°46'510.5
2018-Jul-11 03:30N 35°18' E 139°43'2 3.8
2018-Jul-11 03:00N 35°17' E 139°41'0 0.0
2018-Jul-11 02:30N 35°17' E 139°41'0 0.0
2018-Jul-11 02:00N 35°17' E 139°41'0 0.0
2018-Jul-11 01:30N 35°17' E 139°41'0 0.0
2018-Jul-11 01:00N 35°17' E 139°41'2 4.1
2018-Jul-11 00:31N 35°19' E 139°40'0 1.0
2018-Jul-11 00:00N 35°19' E 139°41'0 0.1
2018-Jul-10 23:30N 35°19' E 139°41'1 1.3
2018-Jul-10 23:01N 35°20' E 139°41'3 5.0
2018-Jul-10 22:30N 35°17' E 139°41'0 0.0
2018-Jul-10 22:01N 35°17' E 139°41'0 0.0
2018-Jul-10 21:30N 35°17' E 139°41'0 0.0
2018-Jul-10 21:00N 35°17' E 139°41'0 0.0
2018-Jul-10 20:30N 35°17' E 139°41'0 0.0
2018-Jul-10 20:00N 35°17' E 139°41'0 0.0
2018-Jul-10 19:30N 35°17' E 139°41'0 0.0
2018-Jul-10 19:00N 35°17' E 139°41'0 0.0
2018-Jul-10 18:30N 35°17' E 139°41'0 0.0
2018-Jul-10 18:00N 35°17' E 139°41'0 0.0
2018-Jul-10 17:30N 35°17' E 139°41'0 0.0
2018-Jul-10 17:00N 35°17' E 139°41'0 0.0
2018-Jul-10 16:31N 35°17' E 139°41'0 0.0
2018-Jul-10 16:00N 35°17' E 139°41'0 0.0
2018-Jul-10 15:30N 35°17' E 139°41'0 0.0
2018-Jul-10 15:00N 35°17' E 139°41'0 0.0
2018-Jul-10 14:28N 35°17' E 139°41'0 0.0
2018-Jul-10 13:57N 35°17' E 139°41'0 0.0
2018-Jul-10 13:30N 35°17' E 139°41'0 0.0
2018-Jul-10 13:01N 35°17' E 139°41'0 0.0
2018-Jul-10 12:24N 35°17' E 139°41'0 0.0
2018-Jul-10 12:00N 35°17' E 139°41'0 0.0
2018-Jul-10 11:30N 35°17' E 139°41'0 0.0
2018-Jul-10 11:00N 35°17' E 139°41'0 0.0
2018-Jul-10 10:29N 35°17' E 139°41'0 0.0
2018-Jul-10 10:00N 35°17' E 139°41'0 0.0
2018-Jul-10 09:29N 35°17' E 139°41'0 0.0
2018-Jul-10 08:59N 35°17' E 139°41'0 0.0
2018-Jul-10 08:29N 35°17' E 139°41'0 0.0
2018-Jul-10 07:58N 35°17' E 139°41'0 0.0
2018-Jul-10 07:30N 35°17' E 139°41'0 0.0
2018-Jul-10 07:00N 35°17' E 139°41'0 0.0
2018-Jul-10 06:31N 35°17' E 139°41'0 0.0
2018-Jul-10 06:01N 35°17' E 139°41'0 0.0
2018-Jul-10 05:30N 35°17' E 139°41'0 0.0
2018-Jul-10 05:00N 35°17' E 139°41'0 0.0
2018-Jul-10 04:30N 35°17' E 139°41'0 0.0
2018-Jul-10 04:01N 35°17' E 139°41'0 0.0
2018-Jul-10 03:29N 35°17' E 139°41'0 0.0
2018-Jul-10 03:01N 35°17' E 139°41'0 0.0
2018-Jul-10 02:31N 35°17' E 139°41'0 0.0
2018-Jul-10 02:00N 35°17' E 139°41'0 0.0
2018-Jul-10 01:29N 35°17' E 139°41'0 0.0
2018-Jul-10 01:01N 35°17' E 139°41'0 0.0
2018-Jul-10 00:31N 35°17' E 139°41'0 0.0
2018-Jul-10 00:00N 35°17' E 139°41'0 0.5
2018-Jul-09 23:30N 35°17' E 139°41'2 4.4
2018-Jul-09 23:01N 35°19' E 139°39'0 0.3
2018-Jul-09 22:30N 35°19' E 139°39'2 3.9
2018-Jul-09 22:00N 35°19' E 139°42'0 0.9
2018-Jul-09 21:30N 35°19' E 139°42'611.7
2018-Jul-09 21:01N 35°24' E 139°46'4 8.5
2018-Jul-09 20:30N 35°20' E 139°44'611.3
2018-Jul-09 20:01N 35°15' E 139°47'510.5
2018-Jul-09 19:30N 35°10' E 139°47'510.0
2018-Jul-09 19:00N 35°15' E 139°46'4 9.1
2018-Jul-09 18:30N 35°17' E 139°41'1 1.3
2018-Jul-09 18:00N 35°17' E 139°41'0 0.0
2018-Jul-09 17:30N 35°17' E 139°41'0 0.0
2018-Jul-09 17:01N 35°17' E 139°41'0 0.0
2018-Jul-09 16:30N 35°17' E 139°41'0 0.0
2018-Jul-09 16:00N 35°17' E 139°41'0 0.0
2018-Jul-09 15:30N 35°17' E 139°41'0 0.0
2018-Jul-09 15:01N 35°17' E 139°41'0 0.0
2018-Jul-09 14:30N 35°17' E 139°41'0 0.0
2018-Jul-09 14:00N 35°17' E 139°41'0 0.0
2018-Jul-09 13:30N 35°17' E 139°41'0 0.0
2018-Jul-09 13:00N 35°17' E 139°41'0 0.0
2018-Jul-09 12:30N 35°17' E 139°41'0 0.0
2018-Jul-09 12:01N 35°17' E 139°41'0 0.0
2018-Jul-09 11:31N 35°17' E 139°41'0 0.0
2018-Jul-09 11:00N 35°17' E 139°41'0 0.0
2018-Jul-09 10:31N 35°17' E 139°41'0 0.0
2018-Jul-09 10:01N 35°17' E 139°41'0 0.0
2018-Jul-09 09:30N 35°17' E 139°41'0 0.0
2018-Jul-09 09:01N 35°17' E 139°41'0 0.0
2018-Jul-09 08:31N 35°17' E 139°41'1 2.9
2018-Jul-09 08:00N 35°18' E 139°42'2 4.1
2018-Jul-09 07:31N 35°18' E 139°39'0 0.0
2018-Jul-09 07:01N 35°18' E 139°39'0 0.0
2018-Jul-09 06:30N 35°18' E 139°39'1 2.4
2018-Jul-09 06:01N 35°19' E 139°40'1 2.7
2018-Jul-09 05:31N 35°19' E 139°42'1 2.6
2018-Jul-09 05:00N 35°19' E 139°40'0 0.5
2018-Jul-09 04:30N 35°19' E 139°40'1 1.2
2018-Jul-09 04:01N 35°19' E 139°40'1 1.4
2018-Jul-09 03:31N 35°19' E 139°40'0 0.2
2018-Jul-09 03:01N 35°19' E 139°40'0 0.0
2018-Jul-09 02:31N 35°19' E 139°40'0 0.0
2018-Jul-09 02:01N 35°19' E 139°40'0 0.0
2018-Jul-09 01:30N 35°19' E 139°40'0 0.0
2018-Jul-09 01:00N 35°19' E 139°40'0 0.0
2018-Jul-09 00:30N 35°19' E 139°40'1 2.4
2018-Jul-09 00:01N 35°20' E 139°41'1 1.2
2018-Jul-08 23:30N 35°19' E 139°41'1 1.0
2018-Jul-08 23:00N 35°20' E 139°41'1 2.4
2018-Jul-08 22:30N 35°19' E 139°40'0 1.0
2018-Jul-08 22:00N 35°19' E 139°40'2 4.8
2018-Jul-08 21:31N 35°17' E 139°41'0 0.0
2018-Jul-08 21:00N 35°17' E 139°41'0 0.0
2018-Jul-08 20:30N 35°17' E 139°41'0 0.0
2018-Jul-08 20:00N 35°17' E 139°41'0 0.0
2018-Jul-08 19:30N 35°17' E 139°41'0 0.0
2018-Jul-08 19:00N 35°17' E 139°41'0 0.0
2018-Jul-08 18:30N 35°17' E 139°41'0 0.0
2018-Jul-08 18:00N 35°17' E 139°41'0 0.0
2018-Jul-08 17:30N 35°17' E 139°41'0 0.0
2018-Jul-08 17:00N 35°17' E 139°41'0 0.0
2018-Jul-08 16:30N 35°17' E 139°41'0 0.0
2018-Jul-08 16:00N 35°17' E 139°41'0 0.0
2018-Jul-08 15:30N 35°17' E 139°41'0 0.0
2018-Jul-08 14:59N 35°17' E 139°41'0 0.0
2018-Jul-08 14:30N 35°17' E 139°41'0 0.0
2018-Jul-08 14:00N 35°17' E 139°41'0 0.0
2018-Jul-08 13:30N 35°17' E 139°41'0 0.0
2018-Jul-08 13:00N 35°17' E 139°41'0 0.0
2018-Jul-08 12:30N 35°17' E 139°41'0 0.0
2018-Jul-08 12:00N 35°17' E 139°41'0 0.0
2018-Jul-08 11:30N 35°17' E 139°41'0 0.0
2018-Jul-08 10:57N 35°17' E 139°41'0 0.0
2018-Jul-08 10:30N 35°17' E 139°41'0 0.0
2018-Jul-08 10:00N 35°17' E 139°41'0 0.0
2018-Jul-08 09:30N 35°17' E 139°41'0 0.0
2018-Jul-08 09:01N 35°17' E 139°41'0 0.0
2018-Jul-08 08:30N 35°17' E 139°41'0 0.0
2018-Jul-08 08:00N 35°17' E 139°41'0 0.0
2018-Jul-08 07:30N 35°17' E 139°41'  
Track history (hours):
 
Tides and Currents Weather Stations Pressure Air Temp Water Temp Dewpoint Dewpoint Depression Visibility Wind Speed Wind Dir Waves Ship Positions

Noshiro Maru

Last reported at 2018-Jul-18 07:01 UTC. Time now 2018-Jul-18 07:04 UTC.
Position N 35°17' E 139°41'.

Length 38 m; draft 3 m.

Type: Tug. MMSI: 431009622.

Date/timePositionNaut miles runAvg speedWind from/ knotsBaromVisibWave heightAir tempDewpointWater temp
2018-Jul-18 07:01N 35°17' E 139°41'5 9.0
2018-Jul-18 06:30N 35°14' E 139°45'2 3.8
2018-Jul-18 05:59N 35°16' E 139°46'612.3
2018-Jul-18 05:31N 35°21' E 139°42'3 7.0
2018-Jul-18 05:00N 35°24' E 139°40'1 1.0
2018-Jul-18 04:31N 35°24' E 139°39'0 0.9
2018-Jul-18 04:01N 35°23' E 139°39'1 1.2
2018-Jul-18 03:31N 35°23' E 139°40'0 0.3
2018-Jul-18 03:01N 35°23' E 139°40'612.2
2018-Jul-18 02:31N 35°17' E 139°44'611.1
2018-Jul-18 02:00N 35°12' E 139°46'611.8
2018-Jul-18 01:30N 35°18' E 139°44'612.7
2018-Jul-18 01:00N 35°24' E 139°43'4 7.7
2018-Jul-18 00:30N 35°28' E 139°44'0 0.1
2018-Jul-18 00:00N 35°28' E 139°44'4 8.8
2018-Jul-17 23:30N 35°23' E 139°44'611.3
2018-Jul-17 23:00N 35°18' E 139°42'1 2.7
2018-Jul-17 22:30N 35°17' E 139°41'0 0.0
2018-Jul-17 22:00N 35°17' E 139°41'0 0.0
2018-Jul-17 21:30N 35°17' E 139°41'0 0.0
2018-Jul-17 21:00N 35°17' E 139°41'0 0.0
2018-Jul-17 20:30N 35°17' E 139°41'0 0.0
2018-Jul-17 20:00N 35°17' E 139°41'0 0.0
2018-Jul-17 19:30N 35°17' E 139°41'0 0.0
2018-Jul-17 19:00N 35°17' E 139°41'0 0.0
2018-Jul-17 18:30N 35°17' E 139°41'0 0.0
2018-Jul-17 18:00N 35°17' E 139°41'0 0.0
2018-Jul-17 17:30N 35°17' E 139°41'0 0.0
2018-Jul-17 17:00N 35°17' E 139°41'0 0.0
2018-Jul-17 16:30N 35°17' E 139°41'0 0.0
2018-Jul-17 16:00N 35°17' E 139°41'0 0.0
2018-Jul-17 15:30N 35°17' E 139°41'0 0.0
2018-Jul-17 15:00N 35°17' E 139°41'0 0.0
2018-Jul-17 14:30N 35°17' E 139°41'0 0.0
2018-Jul-17 14:00N 35°17' E 139°41'0 0.0
2018-Jul-17 13:30N 35°17' E 139°41'0 0.0
2018-Jul-17 13:00N 35°17' E 139°41'0 0.0
2018-Jul-17 12:30N 35°17' E 139°41'0 0.0
2018-Jul-17 12:00N 35°17' E 139°41'0 0.0
2018-Jul-17 11:30N 35°17' E 139°41'0 0.0
2018-Jul-17 11:00N 35°17' E 139°41'0 0.0
2018-Jul-17 10:30N 35°17' E 139°41'0 0.0
2018-Jul-17 10:00N 35°17' E 139°41'0 0.0
2018-Jul-17 09:30N 35°17' E 139°41'0 0.0
2018-Jul-17 09:00N 35°17' E 139°41'0 0.0
2018-Jul-17 08:30N 35°17' E 139°41'0 0.0
2018-Jul-17 08:00N 35°17' E 139°41'0 0.0
2018-Jul-17 07:30N 35°17' E 139°41'0 0.0
2018-Jul-17 07:00N 35°17' E 139°41'0 0.0
2018-Jul-17 06:30N 35°17' E 139°41'0 0.0
2018-Jul-17 06:00N 35°17' E 139°41'0 0.0
2018-Jul-17 05:30N 35°17' E 139°41'0 0.0
2018-Jul-17 05:00N 35°17' E 139°41'0 0.0
2018-Jul-17 04:30N 35°17' E 139°41'0 0.0
2018-Jul-17 04:00N 35°17' E 139°41'0 0.0
2018-Jul-17 03:30N 35°17' E 139°41'0 0.0
2018-Jul-17 03:00N 35°17' E 139°41'0 0.0
2018-Jul-17 02:30N 35°17' E 139°41'0 0.0
2018-Jul-17 02:00N 35°17' E 139°41'3 6.4
2018-Jul-17 01:30N 35°20' E 139°42'1 1.8
2018-Jul-17 01:01N 35°20' E 139°43'611.0
2018-Jul-17 00:30N 35°16' E 139°47'3 2.6
2018-Jul-16 23:31N 35°17' E 139°44'3 5.2
2018-Jul-16 23:00N 35°17' E 139°41'0 0.6
2018-Jul-16 22:30N 35°17' E 139°41'3 6.0
2018-Jul-16 22:00N 35°20' E 139°41'1 1.1
2018-Jul-16 21:30N 35°21' E 139°40'3 6.8
2018-Jul-16 21:00N 35°17' E 139°41'0 0.3
2018-Jul-16 20:30N 35°17' E 139°41'0 0.0
2018-Jul-16 20:00N 35°17' E 139°41'0 0.0
2018-Jul-16 19:30N 35°17' E 139°41'0 0.0
2018-Jul-16 19:00N 35°17' E 139°41'0 0.0
2018-Jul-16 18:30N 35°17' E 139°41'0 0.0
2018-Jul-16 18:00N 35°17' E 139°41'0 0.0
2018-Jul-16 17:30N 35°17' E 139°41'0 0.0
2018-Jul-16 17:00N 35°17' E 139°41'0 0.0
2018-Jul-16 16:30N 35°17' E 139°41'0 0.0
2018-Jul-16 16:00N 35°17' E 139°41'0 0.0
2018-Jul-16 15:30N 35°17' E 139°41'0 0.0
2018-Jul-16 15:00N 35°17' E 139°41'0 0.0
2018-Jul-16 14:30N 35°17' E 139°41'0 0.0
2018-Jul-16 14:00N 35°17' E 139°41'0 0.0
2018-Jul-16 13:30N 35°17' E 139°41'0 0.0
2018-Jul-16 12:59N 35°17' E 139°41'0 0.0
2018-Jul-16 12:30N 35°17' E 139°41'0 0.0
2018-Jul-16 12:00N 35°17' E 139°41'0 0.0
2018-Jul-16 11:30N 35°17' E 139°41'0 0.0
2018-Jul-16 11:00N 35°17' E 139°41'0 0.0
2018-Jul-16 10:31N 35°17' E 139°41'0 0.0
2018-Jul-16 10:01N 35°17' E 139°41'0 0.0
2018-Jul-16 09:30N 35°17' E 139°41'0 0.0
2018-Jul-16 09:00N 35°17' E 139°41'0 0.0
2018-Jul-16 08:30N 35°17' E 139°41'1 2.2
2018-Jul-16 08:00N 35°18' E 139°42'612.5
2018-Jul-16 07:30N 35°12' E 139°46'510.6
2018-Jul-16 07:00N 35°18' E 139°44'612.4
2018-Jul-16 06:30N 35°24' E 139°43'713.4
2018-Jul-16 06:00N 35°28' E 139°49'8 6.9
2018-Jul-16 04:51N 35°33' E 139°56'1 3.4
2018-Jul-16 04:28N 35°35' E 139°57'0 0.0
2018-Jul-16 03:59N 35°35' E 139°57'0 0.0
2018-Jul-16 03:30N 35°35' E 139°57'0 0.0
2018-Jul-16 03:00N 35°35' E 139°57'0 0.0
2018-Jul-16 02:30N 35°35' E 139°57'0 0.0
2018-Jul-16 01:58N 35°35' E 139°57'0 0.0
2018-Jul-16 01:29N 35°35' E 139°57'0 0.0
2018-Jul-16 01:00N 35°35' E 139°57'12 6.5
2018-Jul-15 23:08N 35°25' E 139°47'213.0
2018-Jul-15 23:00N 35°24' E 139°46'612.0
2018-Jul-15 22:31N 35°18' E 139°45'612.1
2018-Jul-15 22:00N 35°12' E 139°47'1 1.8
2018-Jul-15 21:30N 35°12' E 139°46'611.3
2018-Jul-15 21:01N 35°17' E 139°43'2 3.8
2018-Jul-15 20:30N 35°17' E 139°41'0 0.0
2018-Jul-15 20:01N 35°17' E 139°41'0 0.0
2018-Jul-15 19:31N 35°17' E 139°41'0 0.0
2018-Jul-15 19:00N 35°17' E 139°41'0 0.0
2018-Jul-15 18:31N 35°17' E 139°41'0 0.1
2018-Jul-15 18:00N 35°17' E 139°41'0 0.1
2018-Jul-15 17:30N 35°17' E 139°41'0 0.0
2018-Jul-15 17:00N 35°17' E 139°41'0 0.0
2018-Jul-15 16:30N 35°17' E 139°41'0 0.0
2018-Jul-15 16:01N 35°17' E 139°41'0 0.0
2018-Jul-15 15:31N 35°17' E 139°41'0 0.0
2018-Jul-15 15:00N 35°17' E 139°41'0 0.0
2018-Jul-15 14:31N 35°17' E 139°41'0 0.0
2018-Jul-15 14:01N 35°17' E 139°41'0 0.0
2018-Jul-15 13:30N 35°17' E 139°41'0 0.0
2018-Jul-15 13:01N 35°17' E 139°41'0 0.0
2018-Jul-15 12:30N 35°17' E 139°41'0 0.0
2018-Jul-15 12:00N 35°17' E 139°41'0 0.0
2018-Jul-15 11:31N 35°17' E 139°41'0 0.1
2018-Jul-15 11:01N 35°17' E 139°41'0 0.1
2018-Jul-15 10:30N 35°17' E 139°41'0 0.0
2018-Jul-15 10:01N 35°17' E 139°41'0 0.0
2018-Jul-15 09:30N 35°17' E 139°41'0 0.0
2018-Jul-15 09:00N 35°17' E 139°41'0 0.1
2018-Jul-15 08:30N 35°17' E 139°41'0 0.1
2018-Jul-15 08:01N 35°17' E 139°41'0 0.0
2018-Jul-15 07:30N 35°17' E 139°41'0 0.0
2018-Jul-15 07:01N 35°17' E 139°41'1 1.1
2018-Jul-15 06:30N 35°17' E 139°41'510.2
2018-Jul-15 06:00N 35°14' E 139°46'2 3.3
2018-Jul-15 05:30N 35°15' E 139°46'510.8
2018-Jul-15 05:00N 35°20' E 139°43'510.2
2018-Jul-15 04:30N 35°25' E 139°43'4 8.0
2018-Jul-15 04:00N 35°23' E 139°48'2 4.9
2018-Jul-15 03:30N 35°21' E 139°49'0 0.1
2018-Jul-15 03:00N 35°21' E 139°49'2 4.1
2018-Jul-15 02:30N 35°23' E 139°47'3 5.3
2018-Jul-15 02:00N 35°23' E 139°44'0 0.0
2018-Jul-15 01:30N 35°23' E 139°44'0 0.0
2018-Jul-15 01:00N 35°23' E 139°44'0 0.0
2018-Jul-15 00:30N 35°23' E 139°44'0 0.0
2018-Jul-15 00:00N 35°23' E 139°44'0 0.1
2018-Jul-14 23:30N 35°23' E 139°44'0 0.0
2018-Jul-14 23:00N 35°23' E 139°44'0 0.0
2018-Jul-14 22:31N 35°23' E 139°44'0 0.0
2018-Jul-14 22:00N 35°23' E 139°44'0 0.1
2018-Jul-14 21:30N 35°23' E 139°44'4 7.5
2018-Jul-14 21:00N 35°19' E 139°44'612.8
2018-Jul-14 20:31N 35°13' E 139°47'3 6.5
2018-Jul-14 20:00N 35°10' E 139°46'5 9.9
2018-Jul-14 19:30N 35°15' E 139°45'5 9.4
2018-Jul-14 19:00N 35°17' E 139°41'0 0.4
2018-Jul-14 18:30N 35°17' E 139°41'0 0.0
2018-Jul-14 18:00N 35°17' E 139°41'0 0.0
2018-Jul-14 17:30N 35°17' E 139°41'0 0.1
2018-Jul-14 17:00N 35°17' E 139°41'0 0.1
2018-Jul-14 16:30N 35°17' E 139°41'0 0.1
2018-Jul-14 16:00N 35°17' E 139°41'0 0.1
2018-Jul-14 15:30N 35°17' E 139°41'0 0.0
2018-Jul-14 15:00N 35°17' E 139°41'0 0.0
2018-Jul-14 14:30N 35°17' E 139°41'0 0.0
2018-Jul-14 13:30N 35°17' E 139°41'0 0.0
2018-Jul-14 13:00N 35°17' E 139°41'0 0.0
2018-Jul-14 12:30N 35°17' E 139°41'0 0.0
2018-Jul-14 12:00N 35°17' E 139°41'0 0.0
2018-Jul-14 11:30N 35°17' E 139°41'0 0.0
2018-Jul-14 11:00N 35°17' E 139°41'0 0.0
2018-Jul-14 10:30N 35°17' E 139°41'0 0.0
2018-Jul-14 10:00N 35°17' E 139°41'0 0.1
2018-Jul-14 09:30N 35°17' E 139°41'0 0.1
2018-Jul-14 09:00N 35°17' E 139°41'0 0.0
2018-Jul-14 08:30N 35°17' E 139°41'0 0.0
2018-Jul-14 08:00N 35°17' E 139°41'0 0.0
2018-Jul-14 07:30N 35°17' E 139°41'0 0.0
2018-Jul-14 07:00N 35°17' E 139°41'0 0.0
2018-Jul-14 06:30N 35°17' E 139°41'0 0.0
2018-Jul-14 06:00N 35°17' E 139°41'0 0.0
2018-Jul-14 05:30N 35°17' E 139°41'0 0.0
2018-Jul-14 05:00N 35°17' E 139°41'0 0.0
2018-Jul-14 04:30N 35°17' E 139°41'0 0.0
2018-Jul-14 04:00N 35°17' E 139°41'0 0.0
2018-Jul-14 03:30N 35°17' E 139°41'0 0.0
2018-Jul-14 03:00N 35°17' E 139°41'0 0.0
2018-Jul-14 02:30N 35°17' E 139°41'0 0.0
2018-Jul-14 02:00N 35°17' E 139°41'0 0.0
2018-Jul-14 01:30N 35°17' E 139°41'5 9.4
2018-Jul-14 01:00N 35°22' E 139°42'612.1
2018-Jul-14 00:30N 35°28' E 139°43'0 0.5
2018-Jul-14 00:00N 35°28' E 139°43'0 0.2
2018-Jul-13 23:30N 35°28' E 139°43'0 0.1
2018-Jul-13 23:00N 35°28' E 139°43'0 0.0
2018-Jul-13 22:31N 35°28' E 139°43'0 0.2
2018-Jul-13 22:00N 35°28' E 139°43'0 0.1
2018-Jul-13 21:30N 35°28' E 139°43'0 0.1
2018-Jul-13 21:00N 35°28' E 139°43'0 0.7
2018-Jul-13 20:31N 35°28' E 139°43'0 0.8
2018-Jul-13 20:00N 35°28' E 139°43'0 0.0
2018-Jul-13 19:30N 35°28' E 139°43'0 0.2
2018-Jul-13 19:00N 35°28' E 139°43'0 0.1
2018-Jul-13 18:30N 35°28' E 139°43'0 0.2
2018-Jul-13 18:00N 35°28' E 139°43'0 0.2
2018-Jul-13 17:30N 35°28' E 139°43'0 0.1
2018-Jul-13 17:00N 35°28' E 139°43'0 0.6
2018-Jul-13 16:30N 35°28' E 139°43'0 0.6
2018-Jul-13 16:01N 35°28' E 139°43'0 0.1
2018-Jul-13 15:30N 35°28' E 139°43'0 0.1
2018-Jul-13 15:00N 35°28' E 139°43'0 0.1
2018-Jul-13 14:01N 35°28' E 139°43'0 0.3
2018-Jul-13 13:30N 35°28' E 139°43'0 0.2
2018-Jul-13 12:59N 35°28' E 139°43'0 0.3
2018-Jul-13 12:30N 35°28' E 139°43'0 0.2
2018-Jul-13 12:00N 35°28' E 139°43'0 0.2
2018-Jul-13 11:30N 35°28' E 139°43'0 0.5
2018-Jul-13 11:00N 35°28' E 139°43'0 0.4
2018-Jul-13 10:30N 35°28' E 139°43'0 0.1
2018-Jul-13 10:01N 35°28' E 139°43'0 0.3
2018-Jul-13 09:30N 35°28' E 139°43'0 0.4
2018-Jul-13 09:00N 35°28' E 139°43'0 0.2
2018-Jul-13 08:30N 35°28' E 139°43'0 0.6
2018-Jul-13 08:00N 35°28' E 139°43'0 0.8
2018-Jul-13 07:30N 35°28' E 139°43'0 0.8
2018-Jul-13 07:01N 35°28' E 139°43'0 0.5
2018-Jul-13 06:30N 35°28' E 139°43'0 0.6
2018-Jul-13 06:01N 35°28' E 139°43'0 0.1
2018-Jul-13 05:30N 35°28' E 139°43'0 0.1
2018-Jul-13 05:00N 35°28' E 139°43'0 0.0
2018-Jul-13 04:30N 35°28' E 139°43'3 5.3
2018-Jul-13 04:00N 35°26' E 139°45'4 8.8
2018-Jul-13 03:31N 35°21' E 139°45'510.7
2018-Jul-13 03:00N 35°16' E 139°46'510.6
2018-Jul-13 02:30N 35°11' E 139°47'1 2.4
2018-Jul-13 02:00N 35°12' E 139°46'612.3
2018-Jul-13 01:30N 35°18' E 139°43'2 4.5
2018-Jul-13 01:00N 35°17' E 139°41'0 0.0
2018-Jul-13 00:30N 35°17' E 139°41'0 0.0
2018-Jul-13 00:00N 35°17' E 139°41'0 0.0
2018-Jul-12 23:30N 35°17' E 139°41'0 0.0
2018-Jul-12 23:00N 35°17' E 139°41'0 0.0
2018-Jul-12 22:30N 35°17' E 139°41'0 0.0
2018-Jul-12 21:59N 35°17' E 139°41'0 0.0
2018-Jul-12 21:29N 35°17' E 139°41'0 0.0
2018-Jul-12 21:00N 35°17' E 139°41'0 0.0
2018-Jul-12 20:30N 35°17' E 139°41'0 0.0
2018-Jul-12 19:59N 35°17' E 139°41'0 0.0
2018-Jul-12 19:30N 35°17' E 139°41'0 0.0
2018-Jul-12 19:00N 35°17' E 139°41'0 0.0
2018-Jul-12 18:30N 35°17' E 139°41'0 0.0
2018-Jul-12 18:00N 35°17' E 139°41'0 0.0
2018-Jul-12 17:30N 35°17' E 139°41'0 0.0
2018-Jul-12 16:59N 35°17' E 139°41'0 0.0
2018-Jul-12 16:30N 35°17' E 139°41'0 0.0
2018-Jul-12 15:57N 35°17' E 139°41'0 0.0
2018-Jul-12 15:29N 35°17' E 139°41'0 0.0
2018-Jul-12 15:00N 35°17' E 139°41'0 0.0
2018-Jul-12 14:30N 35°17' E 139°41'0 0.0
2018-Jul-12 14:00N 35°17' E 139°41'0 0.0
2018-Jul-12 13:30N 35°17' E 139°41'0 0.0
2018-Jul-12 13:00N 35°17' E 139°41'0 0.0
2018-Jul-12 12:29N 35°17' E 139°41'0 0.0
2018-Jul-12 12:00N 35°17' E 139°41'0 0.0
2018-Jul-12 11:29N 35°17' E 139°41'0 0.0
2018-Jul-12 11:00N 35°17' E 139°41'0 0.0
2018-Jul-12 10:28N 35°17' E 139°41'0 0.0
2018-Jul-12 09:57N 35°17' E 139°41'0 0.0
2018-Jul-12 09:30N 35°17' E 139°41'0 0.0
2018-Jul-12 09:00N 35°17' E 139°41'0 0.0
2018-Jul-12 08:28N 35°17' E 139°41'0 0.0
2018-Jul-12 07:59N 35°17' E 139°41'0 0.0
2018-Jul-12 07:30N 35°17' E 139°41'0 0.0
2018-Jul-12 06:59N 35°17' E 139°41'0 0.0
2018-Jul-12 06:28N 35°17' E 139°41'0 0.0
2018-Jul-12 06:00N 35°17' E 139°41'0 0.0
2018-Jul-12 05:30N 35°17' E 139°41'0 0.0
2018-Jul-12 04:59N 35°17' E 139°41'0 0.0
2018-Jul-12 04:30N 35°17' E 139°41'0 0.0
2018-Jul-12 04:00N 35°17' E 139°41'0 0.0
2018-Jul-12 03:30N 35°17' E 139°41'0 0.0
2018-Jul-12 03:00N 35°17' E 139°41'0 0.0
2018-Jul-12 02:30N 35°17' E 139°41'0 0.0
2018-Jul-12 02:00N 35°17' E 139°41'0 0.0
2018-Jul-12 01:30N 35°17' E 139°41'0 0.0
2018-Jul-12 01:00N 35°17' E 139°41'0 0.0
2018-Jul-12 00:30N 35°17' E 139°41'0 0.0
2018-Jul-12 00:00N 35°17' E 139°41'3 6.7
2018-Jul-11 23:30N 35°20' E 139°42'611.7
2018-Jul-11 23:01N 35°25' E 139°46'612.9
2018-Jul-11 22:31N 35°19' E 139°44'612.1
2018-Jul-11 22:00N 35°13' E 139°47'3 6.1
2018-Jul-11 21:31N 35°10' E 139°46'4 8.5
2018-Jul-11 21:00N 35°13' E 139°43'0 0.0
2018-Jul-11 20:30N 35°13' E 139°43'0 0.0
2018-Jul-11 20:00N 35°13' E 139°43'0 0.0
2018-Jul-11 19:29N 35°13' E 139°43'0 0.0
2018-Jul-11 19:00N 35°13' E 139°43'0 0.0
2018-Jul-11 18:30N 35°13' E 139°43'0 0.0
2018-Jul-11 18:00N 35°13' E 139°43'0 0.0
2018-Jul-11 17:30N 35°13' E 139°43'0 0.0
2018-Jul-11 16:59N 35°13' E 139°43'0 0.0
2018-Jul-11 16:30N 35°13' E 139°43'0 1.0
2018-Jul-11 16:01N 35°13' E 139°44'3 5.3
2018-Jul-11 15:30N 35°15' E 139°46'612.9
2018-Jul-11 15:00N 35°20' E 139°42'612.2
2018-Jul-11 14:31N 35°26' E 139°42'1 2.4
2018-Jul-11 14:00N 35°27' E 139°41'0 0.1
2018-Jul-11 13:30N 35°27' E 139°41'1 2.1
2018-Jul-11 13:01N 35°27' E 139°42'0 0.0
2018-Jul-11 12:30N 35°27' E 139°42'0 0.1
2018-Jul-11 12:01N 35°27' E 139°42'0 0.0
2018-Jul-11 11:30N 35°27' E 139°42'0 0.0
2018-Jul-11 11:00N 35°27' E 139°42'0 0.0
2018-Jul-11 10:30N 35°27' E 139°42'0 0.1
2018-Jul-11 10:00N 35°27' E 139°42'0 0.1
2018-Jul-11 09:29N 35°27' E 139°42'0 0.0
2018-Jul-11 09:00N 35°27' E 139°42'0 0.0
2018-Jul-11 08:30N 35°27' E 139°42'0 0.0
2018-Jul-11 08:00N 35°27' E 139°42'0 0.0
2018-Jul-11 07:31N 35°27' E 139°42'0 0.1
2018-Jul-11 07:01N 35°27' E 139°42'0 0.0
2018-Jul-11 06:30N 35°27' E 139°42'4 8.0
2018-Jul-11 06:00N 35°25' E 139°46'5 9.5
2018-Jul-11 05:30N 35°20' E 139°44'510.9
2018-Jul-11 05:00N 35°15' E 139°47'510.3
2018-Jul-11 04:30N 35°10' E 139°47'3 5.8
2018-Jul-11 04:00N 35°13' E 139°46'510.5
2018-Jul-11 03:30N 35°18' E 139°43'2 3.8
2018-Jul-11 03:00N 35°17' E 139°41'0 0.0
2018-Jul-11 02:30N 35°17' E 139°41'0 0.0
2018-Jul-11 02:00N 35°17' E 139°41'0 0.0
2018-Jul-11 01:30N 35°17' E 139°41'0 0.0
2018-Jul-11 01:00N 35°17' E 139°41'2 4.1
2018-Jul-11 00:31N 35°19' E 139°40'0 1.0
2018-Jul-11 00:00N 35°19' E 139°41'0 0.1
2018-Jul-10 23:30N 35°19' E 139°41'1 1.3
2018-Jul-10 23:01N 35°20' E 139°41'3 5.0
2018-Jul-10 22:30N 35°17' E 139°41'0 0.0
2018-Jul-10 22:01N 35°17' E 139°41'0 0.0
2018-Jul-10 21:30N 35°17' E 139°41'0 0.0
2018-Jul-10 21:00N 35°17' E 139°41'0 0.0
2018-Jul-10 20:30N 35°17' E 139°41'0 0.0
2018-Jul-10 20:00N 35°17' E 139°41'0 0.0
2018-Jul-10 19:30N 35°17' E 139°41'0 0.0
2018-Jul-10 19:00N 35°17' E 139°41'0 0.0
2018-Jul-10 18:30N 35°17' E 139°41'0 0.0
2018-Jul-10 18:00N 35°17' E 139°41'0 0.0
2018-Jul-10 17:30N 35°17' E 139°41'0 0.0
2018-Jul-10 17:00N 35°17' E 139°41'0 0.0
2018-Jul-10 16:31N 35°17' E 139°41'0 0.0
2018-Jul-10 16:00N 35°17' E 139°41'0 0.0
2018-Jul-10 15:30N 35°17' E 139°41'0 0.0
2018-Jul-10 15:00N 35°17' E 139°41'0 0.0
2018-Jul-10 14:28N 35°17' E 139°41'0 0.0
2018-Jul-10 13:57N 35°17' E 139°41'0 0.0
2018-Jul-10 13:30N 35°17' E 139°41'0 0.0
2018-Jul-10 13:01N 35°17' E 139°41'0 0.0
2018-Jul-10 12:24N 35°17' E 139°41'0 0.0
2018-Jul-10 12:00N 35°17' E 139°41'0 0.0
2018-Jul-10 11:30N 35°17' E 139°41'0 0.0
2018-Jul-10 11:00N 35°17' E 139°41'0 0.0
2018-Jul-10 10:29N 35°17' E 139°41'0 0.0
2018-Jul-10 10:00N 35°17' E 139°41'0 0.0
2018-Jul-10 09:29N 35°17' E 139°41'0 0.0
2018-Jul-10 08:59N 35°17' E 139°41'0 0.0
2018-Jul-10 08:29N 35°17' E 139°41'0 0.0
2018-Jul-10 07:58N 35°17' E 139°41'0 0.0
2018-Jul-10 07:30N 35°17' E 139°41'0 0.0
2018-Jul-10 07:00N 35°17' E 139°41'0 0.0
2018-Jul-10 06:31N 35°17' E 139°41'0 0.0
2018-Jul-10 06:01N 35°17' E 139°41'0 0.0
2018-Jul-10 05:30N 35°17' E 139°41'0 0.0
2018-Jul-10 05:00N 35°17' E 139°41'0 0.0
2018-Jul-10 04:30N 35°17' E 139°41'0 0.0
2018-Jul-10 04:01N 35°17' E 139°41'0 0.0
2018-Jul-10 03:29N 35°17' E 139°41'0 0.0
2018-Jul-10 03:01N 35°17' E 139°41'0 0.0
2018-Jul-10 02:31N 35°17' E 139°41'0 0.0
2018-Jul-10 02:00N 35°17' E 139°41'0 0.0
2018-Jul-10 01:29N 35°17' E 139°41'0 0.0
2018-Jul-10 01:01N 35°17' E 139°41'0 0.0
2018-Jul-10 00:31N 35°17' E 139°41'0 0.0
2018-Jul-10 00:00N 35°17' E 139°41'0 0.5
2018-Jul-09 23:30N 35°17' E 139°41'2 4.4
2018-Jul-09 23:01N 35°19' E 139°39'0 0.3
2018-Jul-09 22:30N 35°19' E 139°39'2 3.9
2018-Jul-09 22:00N 35°19' E 139°42'0 0.9
2018-Jul-09 21:30N 35°19' E 139°42'611.7
2018-Jul-09 21:01N 35°24' E 139°46'4 8.5
2018-Jul-09 20:30N 35°20' E 139°44'611.3
2018-Jul-09 20:01N 35°15' E 139°47'510.5
2018-Jul-09 19:30N 35°10' E 139°47'510.0
2018-Jul-09 19:00N 35°15' E 139°46'4 9.1
2018-Jul-09 18:30N 35°17' E 139°41'1 1.3
2018-Jul-09 18:00N 35°17' E 139°41'0 0.0
2018-Jul-09 17:30N 35°17' E 139°41'0 0.0
2018-Jul-09 17:01N 35°17' E 139°41'0 0.0
2018-Jul-09 16:30N 35°17' E 139°41'0 0.0
2018-Jul-09 16:00N 35°17' E 139°41'0 0.0
2018-Jul-09 15:30N 35°17' E 139°41'0 0.0
2018-Jul-09 15:01N 35°17' E 139°41'0 0.0
2018-Jul-09 14:30N 35°17' E 139°41'0 0.0
2018-Jul-09 14:00N 35°17' E 139°41'0 0.0
2018-Jul-09 13:30N 35°17' E 139°41'0 0.0
2018-Jul-09 13:00N 35°17' E 139°41'0 0.0
2018-Jul-09 12:30N 35°17' E 139°41'0 0.0
2018-Jul-09 12:01N 35°17' E 139°41'0 0.0
2018-Jul-09 11:31N 35°17' E 139°41'0 0.0
2018-Jul-09 11:00N 35°17' E 139°41'0 0.0
2018-Jul-09 10:31N 35°17' E 139°41'0 0.0
2018-Jul-09 10:01N 35°17' E 139°41'0 0.0
2018-Jul-09 09:30N 35°17' E 139°41'0 0.0
2018-Jul-09 09:01N 35°17' E 139°41'0 0.0
2018-Jul-09 08:31N 35°17' E 139°41'1 2.9
2018-Jul-09 08:00N 35°18' E 139°42'2 4.1
2018-Jul-09 07:31N 35°18' E 139°39'0 0.0
2018-Jul-09 07:01N 35°18' E 139°39'0 0.0
2018-Jul-09 06:30N 35°18' E 139°39'1 2.4
2018-Jul-09 06:01N 35°19' E 139°40'1 2.7
2018-Jul-09 05:31N 35°19' E 139°42'1 2.6
2018-Jul-09 05:00N 35°19' E 139°40'0 0.5
2018-Jul-09 04:30N 35°19' E 139°40'1 1.2
2018-Jul-09 04:01N 35°19' E 139°40'1 1.4
2018-Jul-09 03:31N 35°19' E 139°40'0 0.2
2018-Jul-09 03:01N 35°19' E 139°40'0 0.0
2018-Jul-09 02:31N 35°19' E 139°40'0 0.0
2018-Jul-09 02:01N 35°19' E 139°40'0 0.0
2018-Jul-09 01:30N 35°19' E 139°40'0 0.0
2018-Jul-09 01:00N 35°19' E 139°40'0 0.0
2018-Jul-09 00:30N 35°19' E 139°40'1 2.4
2018-Jul-09 00:01N 35°20' E 139°41'1 1.2
2018-Jul-08 23:30N 35°19' E 139°41'1 1.0
2018-Jul-08 23:00N 35°20' E 139°41'1 2.4
2018-Jul-08 22:30N 35°19' E 139°40'0 1.0
2018-Jul-08 22:00N 35°19' E 139°40'2 4.8
2018-Jul-08 21:31N 35°17' E 139°41'0 0.0
2018-Jul-08 21:00N 35°17' E 139°41'0 0.0
2018-Jul-08 20:30N 35°17' E 139°41'0 0.0
2018-Jul-08 20:00N 35°17' E 139°41'0 0.0
2018-Jul-08 19:30N 35°17' E 139°41'0 0.0
2018-Jul-08 19:00N 35°17' E 139°41'0 0.0
2018-Jul-08 18:30N 35°17' E 139°41'0 0.0
2018-Jul-08 18:00N 35°17' E 139°41'0 0.0
2018-Jul-08 17:30N 35°17' E 139°41'0 0.0
2018-Jul-08 17:00N 35°17' E 139°41'0 0.0
2018-Jul-08 16:30N 35°17' E 139°41'0 0.0
2018-Jul-08 16:00N 35°17' E 139°41'0 0.0
2018-Jul-08 15:30N 35°17' E 139°41'0 0.0
2018-Jul-08 14:59N 35°17' E 139°41'0 0.0
2018-Jul-08 14:30N 35°17' E 139°41'0 0.0
2018-Jul-08 14:00N 35°17' E 139°41'0 0.0
2018-Jul-08 13:30N 35°17' E 139°41'0 0.0
2018-Jul-08 13:00N 35°17' E 139°41'0 0.0
2018-Jul-08 12:30N 35°17' E 139°41'0 0.0
2018-Jul-08 12:00N 35°17' E 139°41'0 0.0
2018-Jul-08 11:30N 35°17' E 139°41'0 0.0
2018-Jul-08 10:57N 35°17' E 139°41'0 0.0
2018-Jul-08 10:30N 35°17' E 139°41'0 0.0
2018-Jul-08 10:00N 35°17' E 139°41'0 0.0
2018-Jul-08 09:30N 35°17' E 139°41'0 0.0
2018-Jul-08 09:01N 35°17' E 139°41'0 0.0
2018-Jul-08 08:30N 35°17' E 139°41'0 0.0
2018-Jul-08 08:00N 35°17' E 139°41'0 0.0
2018-Jul-08 07:30N 35°17' E 139°41'  

Dump ship's entire track history